createdAt,value
2022-11-18T00:01:07.923Z,11.97
2022-11-18T00:03:34.814Z,10.13
2022-11-18T00:06:01.285Z,10.53
2022-11-18T00:08:28.145Z,11.17
2022-11-18T00:10:54.734Z,11.90
2022-11-18T00:13:50.380Z,11.60
2022-11-18T00:16:16.859Z,12.70
2022-11-18T00:18:43.324Z,11.63
2022-11-18T00:21:11.551Z,9.50
2022-11-18T00:23:39.365Z,14.37
2022-11-18T00:26:08.681Z,17.00
2022-11-18T00:28:35.482Z,11.00
2022-11-18T00:31:04.044Z,15.27
2022-11-18T00:33:31.324Z,14.23
2022-11-18T00:35:58.355Z,11.07
2022-11-18T00:38:26.126Z,11.80
2022-11-18T00:41:00.678Z,15.10
2022-11-18T00:43:27.139Z,9.80
2022-11-18T00:45:53.847Z,11.07
2022-11-18T00:48:21.927Z,12.20
2022-11-18T00:50:52.980Z,10.33
2022-11-18T00:53:20.859Z,16.03
2022-11-18T00:55:47.823Z,11.07
2022-11-18T00:58:14.467Z,13.50
2022-11-18T01:00:50.592Z,12.47
2022-11-18T01:03:17.332Z,12.60
2022-11-18T01:05:43.855Z,12.90
2022-11-18T01:08:12.013Z,13.13
2022-11-18T01:10:40.335Z,10.27
2022-11-18T01:13:20.898Z,12.50
2022-11-18T01:15:49.341Z,9.40
2022-11-18T01:18:17.718Z,17.40
2022-11-18T01:20:45.143Z,20.97
2022-11-18T01:23:12.729Z,10.40
2022-11-18T01:25:41.280Z,11.67
2022-11-18T01:28:07.858Z,12.37
2022-11-18T01:30:35.967Z,14.10
2022-11-18T01:33:04.362Z,10.27
2022-11-18T01:35:42.704Z,9.43
2022-11-18T01:38:11.664Z,9.70
2022-11-18T01:40:38.423Z,13.37
2022-11-18T01:43:17.378Z,10.47
2022-11-18T01:45:45.732Z,10.93
2022-11-18T01:48:20.735Z,10.33
2022-11-18T01:50:52.103Z,15.13
2022-11-18T01:53:25.706Z,10.83
2022-11-18T01:55:56.127Z,9.60
2022-11-18T01:58:25.005Z,11.90
2022-11-18T02:00:51.813Z,10.37
2022-11-18T02:03:18.759Z,10.87
2022-11-18T02:05:47.992Z,10.50
2022-11-18T02:08:16.737Z,16.80
2022-11-18T02:10:43.331Z,12.80
2022-11-18T02:13:09.960Z,12.30
2022-11-18T02:15:45.279Z,10.67
2022-11-18T02:18:34.766Z,12.77
2022-11-18T02:21:29.183Z,11.37
2022-11-18T02:24:04.782Z,10.10
2022-11-18T02:26:51.487Z,11.13
2022-11-18T02:29:26.583Z,12.67
2022-11-18T02:32:06.368Z,11.47
2022-11-18T02:35:05.176Z,11.20
2022-11-18T02:37:40.490Z,11.83
2022-11-18T02:40:10.251Z,12.37
2022-11-18T02:42:39.272Z,11.57
2022-11-18T02:45:09.307Z,9.17
2022-11-18T02:47:37.375Z,15.33
2022-11-18T02:50:09.106Z,9.60
2022-11-18T02:52:38.988Z,9.80
2022-11-18T02:55:09.026Z,10.37
2022-11-18T02:57:36.972Z,11.60
2022-11-18T03:00:04.695Z,11.43
2022-11-18T03:02:42.908Z,11.10
2022-11-18T03:05:18.287Z,10.20
2022-11-18T03:07:50.468Z,11.20
2022-11-18T03:10:19.281Z,11.43
2022-11-18T03:12:56.005Z,9.17
2022-11-18T03:15:40.882Z,9.17
2022-11-18T03:18:26.581Z,14.33
2022-11-18T03:20:58.700Z,11.37
2022-11-18T03:23:41.481Z,8.47
2022-11-18T03:26:16.443Z,13.07
2022-11-18T03:29:05.039Z,10.73
2022-11-18T03:31:43.074Z,9.60
2022-11-18T03:34:42.119Z,11.77
2022-11-18T03:37:12.560Z,9.47
2022-11-18T03:39:44.344Z,12.93
2022-11-18T03:42:19.839Z,10.97
2022-11-18T03:44:59.070Z,13.40
2022-11-18T03:47:31.948Z,20.73
2022-11-18T03:50:05.724Z,12.83
2022-11-18T03:52:36.723Z,10.23
2022-11-18T03:55:12.349Z,14.30
2022-11-18T03:57:47.271Z,9.77
2022-11-18T04:00:16.147Z,13.30
2022-11-18T04:02:43.562Z,10.03
2022-11-18T04:05:13.073Z,12.13
2022-11-18T04:07:53.970Z,11.20
2022-11-18T04:10:22.073Z,13.00
2022-11-18T04:13:01.869Z,12.27
2022-11-18T04:15:33.295Z,11.10
2022-11-18T04:17:59.921Z,11.73
2022-11-18T04:20:27.067Z,13.70
2022-11-18T04:22:53.487Z,14.37
2022-11-18T04:25:21.060Z,11.87
2022-11-18T04:27:47.505Z,14.43
2022-11-18T04:30:13.955Z,10.80
2022-11-18T04:32:40.427Z,20.10
2022-11-18T04:35:07.019Z,13.80
2022-11-18T04:37:35.908Z,12.37
2022-11-18T04:40:03.248Z,14.77
2022-11-18T04:42:29.715Z,17.57
2022-11-18T04:44:56.218Z,12.30
2022-11-18T04:47:22.750Z,12.47
2022-11-18T04:49:49.441Z,16.77
2022-11-18T04:52:16.407Z,16.10
2022-11-18T04:54:43.140Z,13.50
2022-11-18T04:57:09.648Z,13.30
2022-11-18T04:59:36.544Z,10.67
2022-11-18T05:02:03.656Z,14.13
2022-11-18T05:04:32.599Z,16.60
2022-11-18T05:07:00.926Z,13.23
2022-11-18T05:09:31.772Z,13.33
2022-11-18T05:12:17.684Z,10.13
2022-11-18T05:14:49.562Z,13.33
2022-11-18T05:17:17.694Z,13.30
2022-11-18T05:19:44.166Z,15.00
2022-11-18T05:22:10.617Z,16.20
2022-11-18T05:24:37.018Z,15.20
2022-11-18T05:27:03.665Z,10.20
2022-11-18T05:29:30.171Z,10.97
2022-11-18T05:31:56.635Z,11.90
2022-11-18T05:34:23.153Z,16.33
2022-11-18T05:36:49.734Z,10.40
2022-11-18T05:39:16.694Z,11.47
2022-11-18T05:42:01.787Z,20.53
2022-11-18T05:44:28.293Z,74.07
2022-11-18T05:46:55.209Z,15.33
2022-11-18T05:49:21.725Z,18.20
2022-11-18T05:51:48.215Z,17.07
2022-11-18T05:54:17.990Z,15.43
2022-11-18T05:56:45.207Z,12.37
2022-11-18T05:59:12.419Z,14.40
2022-11-18T06:02:01.614Z,16.83
2022-11-18T06:04:31.148Z,12.80
2022-11-18T06:07:05.821Z,15.57
2022-11-18T06:09:36.864Z,12.43
2022-11-18T06:12:05.384Z,16.47
2022-11-18T06:14:42.118Z,13.03
2022-11-18T06:17:35.669Z,12.73
2022-11-18T06:20:04.309Z,14.80
2022-11-18T06:22:31.048Z,17.20
2022-11-18T06:24:57.562Z,15.40
2022-11-18T06:27:24.020Z,10.30
2022-11-18T06:29:50.449Z,11.50
2022-11-18T06:32:16.904Z,15.10
2022-11-18T06:34:43.339Z,10.47
2022-11-18T06:37:14.071Z,14.93
2022-11-18T06:39:40.496Z,13.10
2022-11-18T06:42:07.059Z,14.20
2022-11-18T06:44:33.641Z,17.90
2022-11-18T06:47:01.450Z,13.20
2022-11-18T06:49:28.366Z,15.00
2022-11-18T06:51:55.158Z,14.60
2022-11-18T06:54:22.231Z,17.23
2022-11-18T06:56:48.760Z,11.50
2022-11-18T06:59:15.572Z,14.30
2022-11-18T07:01:42.358Z,19.63
2022-11-18T07:04:09.154Z,13.13
2022-11-18T07:06:36.945Z,25.13
2022-11-18T07:09:07.098Z,15.37
2022-11-18T07:11:34.224Z,10.70
2022-11-18T07:14:01.277Z,13.70
2022-11-18T07:16:28.072Z,11.90
2022-11-18T07:18:55.660Z,13.63
2022-11-18T07:21:25.368Z,14.80
2022-11-18T07:23:51.885Z,17.83
2022-11-18T07:26:19.803Z,16.40
2022-11-18T07:28:46.483Z,18.43
2022-11-18T07:31:15.591Z,17.50
2022-11-18T07:33:43.185Z,15.87
2022-11-18T07:36:12.251Z,17.33
2022-11-18T07:38:39.571Z,12.60
2022-11-18T07:41:11.496Z,15.13
2022-11-18T07:43:38.630Z,12.83
2022-11-18T07:46:15.656Z,21.07
2022-11-18T07:48:43.659Z,20.90
2022-11-18T07:51:10.657Z,13.43
2022-11-18T07:53:37.564Z,18.50
2022-11-18T07:56:05.385Z,17.40
2022-11-18T07:58:32.349Z,25.57
2022-11-18T08:00:59.379Z,40.40
2022-11-18T08:03:27.738Z,41.57
2022-11-18T08:05:58.920Z,41.93
2022-11-18T08:08:25.458Z,43.63
2022-11-18T08:10:51.964Z,35.40
2022-11-18T08:13:18.424Z,56.23
2022-11-18T08:15:45.166Z,48.60
2022-11-18T08:18:13.834Z,30.10
2022-11-18T08:20:40.629Z,20.60
2022-11-18T08:23:07.096Z,17.27
2022-11-18T08:25:33.610Z,17.77
2022-11-18T08:28:00.238Z,16.83
2022-11-18T08:30:26.723Z,13.03
2022-11-18T08:32:53.236Z,16.10
2022-11-18T08:35:19.662Z,12.80
2022-11-18T08:37:46.125Z,17.47
2022-11-18T08:40:12.866Z,16.10
2022-11-18T08:42:39.339Z,13.93
2022-11-18T08:45:08.499Z,15.77
2022-11-18T08:47:36.060Z,21.90
2022-11-18T08:50:04.606Z,13.37
2022-11-18T08:52:31.079Z,15.30
2022-11-18T08:54:57.568Z,22.43
2022-11-18T08:57:24.359Z,14.90
2022-11-18T08:59:50.915Z,17.43
2022-11-18T09:02:20.011Z,15.23
2022-11-18T09:04:47.792Z,14.10
2022-11-18T09:07:14.414Z,13.20
2022-11-18T09:09:40.962Z,14.03
2022-11-18T09:12:07.829Z,17.60
2022-11-18T09:17:20.627Z,13.83
2022-11-18T09:19:48.195Z,15.63
2022-11-18T09:22:14.974Z,12.00
2022-11-18T09:24:41.422Z,15.37
2022-11-18T09:27:13.671Z,15.43
2022-11-18T09:29:43.066Z,16.97
2022-11-18T09:32:09.614Z,14.67
2022-11-18T09:34:36.234Z,16.67
2022-11-18T09:37:06.949Z,14.97
2022-11-18T09:39:39.509Z,16.93
2022-11-18T09:42:43.866Z,14.67
2022-11-18T09:45:24.515Z,12.33
2022-11-18T09:47:55.914Z,19.83
2022-11-18T09:53:12.936Z,15.57
2022-11-18T09:55:41.713Z,11.47
2022-11-18T09:58:18.315Z,17.30
2022-11-18T10:00:46.115Z,14.53
2022-11-18T10:03:21.986Z,15.50
2022-11-18T10:05:55.836Z,13.03
2022-11-18T10:08:33.214Z,15.70
2022-11-18T10:11:14.285Z,13.83
2022-11-18T10:13:48.791Z,17.67
2022-11-18T10:16:36.441Z,16.07
2022-11-18T10:19:24.813Z,12.73
2022-11-18T10:22:19.471Z,17.43
2022-11-18T10:24:52.545Z,23.77
2022-11-18T10:27:19.529Z,14.43
2022-11-18T10:29:53.096Z,12.77
2022-11-18T10:32:20.065Z,13.83
2022-11-18T10:34:57.652Z,16.30
2022-11-18T10:37:52.935Z,12.57
2022-11-18T10:40:25.576Z,16.97
2022-11-18T10:42:52.086Z,16.83
2022-11-18T10:45:21.466Z,14.50
2022-11-18T10:48:09.136Z,15.13
2022-11-18T10:50:37.188Z,16.43
2022-11-18T10:53:05.786Z,12.13
2022-11-18T10:55:32.466Z,13.50
2022-11-18T10:58:10.981Z,14.33
2022-11-18T11:00:49.267Z,13.10
2022-11-18T11:03:23.571Z,13.07
2022-11-18T11:06:18.543Z,10.43
2022-11-18T11:08:50.689Z,15.60
2022-11-18T11:11:28.520Z,14.10
2022-11-18T11:14:02.095Z,11.93
2022-11-18T11:16:30.668Z,12.07
2022-11-18T11:19:00.656Z,11.70
2022-11-18T11:21:27.995Z,13.50
2022-11-18T11:23:54.789Z,27.97
2022-11-18T11:29:43.166Z,21.47
2022-11-18T11:32:26.889Z,14.07
2022-11-18T11:35:12.741Z,21.23
2022-11-18T11:37:58.924Z,12.60
2022-11-18T11:40:39.704Z,14.23
2022-11-18T11:43:21.332Z,17.03
2022-11-18T11:46:07.185Z,14.77
2022-11-18T11:48:51.875Z,12.60
2022-11-18T11:51:41.855Z,17.87
2022-11-18T11:54:11.329Z,16.83
2022-11-18T11:57:00.025Z,16.43
2022-11-18T11:59:42.788Z,21.23
2022-11-18T12:02:29.132Z,16.53
2022-11-18T12:05:00.316Z,13.10
2022-11-18T12:07:32.086Z,14.63
2022-11-18T12:10:20.747Z,17.83
2022-11-18T12:13:13.012Z,20.23
2022-11-18T12:15:43.023Z,21.33
2022-11-18T12:18:24.416Z,17.13
2022-11-18T12:20:53.669Z,15.90
2022-11-18T12:23:30.817Z,13.40
2022-11-18T12:26:05.380Z,15.70
2022-11-18T12:28:45.115Z,23.43
2022-11-18T12:31:17.802Z,20.40
2022-11-18T12:33:44.935Z,17.23
2022-11-18T12:36:28.410Z,14.77
2022-11-18T12:38:55.902Z,12.67
2022-11-18T12:41:59.624Z,15.33
2022-11-18T12:44:28.636Z,19.23
2022-11-18T12:46:59.309Z,13.17
2022-11-18T12:49:25.792Z,17.17
2022-11-18T12:51:53.549Z,13.87
2022-11-18T12:54:34.425Z,21.57
2022-11-18T12:57:04.320Z,17.33
2022-11-18T12:59:38.944Z,13.47
2022-11-18T13:02:18.312Z,19.07
2022-11-18T13:04:47.596Z,15.40
2022-11-18T13:07:37.352Z,14.10
2022-11-18T13:10:22.625Z,13.03
2022-11-18T13:12:49.306Z,15.70
2022-11-18T13:15:34.611Z,13.17
2022-11-18T13:18:12.727Z,14.50
2022-11-18T13:20:41.136Z,14.00
2022-11-18T13:23:29.077Z,18.60
2022-11-18T13:26:18.934Z,16.23
2022-11-18T13:29:13.561Z,15.50
2022-11-18T13:32:06.413Z,12.47
2022-11-18T13:34:45.442Z,14.77
2022-11-18T13:37:17.183Z,13.73
2022-11-18T13:39:44.538Z,16.27
2022-11-18T13:42:20.464Z,13.17
2022-11-18T13:45:01.581Z,14.43
2022-11-18T13:47:41.785Z,15.90
2022-11-18T13:50:11.269Z,10.33
2022-11-18T13:52:40.664Z,16.57
2022-11-18T13:55:15.288Z,12.37
2022-11-18T13:57:46.156Z,15.13
2022-11-18T14:00:22.332Z,17.30
2022-11-18T14:02:57.759Z,14.33
2022-11-18T14:05:24.980Z,10.70
2022-11-18T14:07:59.225Z,17.60
2022-11-18T14:10:43.614Z,18.53
2022-11-18T14:13:17.253Z,10.40
2022-11-18T14:15:44.308Z,12.30
2022-11-18T14:18:21.291Z,14.20
2022-11-18T14:20:53.017Z,10.77
2022-11-18T14:23:26.159Z,12.30
2022-11-18T14:25:52.925Z,27.03
2022-11-18T14:28:27.105Z,13.07
2022-11-18T14:30:59.903Z,18.73
2022-11-18T14:33:28.703Z,15.20
2022-11-18T14:36:21.733Z,17.37
2022-11-18T14:39:25.899Z,14.67
2022-11-18T14:41:48.187Z,14.50
2022-11-18T14:44:15.353Z,16.00
2022-11-18T14:46:46.375Z,18.30
2022-11-18T14:49:17.277Z,18.13
2022-11-18T14:51:44.931Z,16.60
2022-11-18T14:54:13.943Z,21.03
2022-11-18T14:56:41.151Z,14.70
2022-11-18T14:59:07.683Z,16.70
2022-11-18T15:01:34.288Z,11.77
2022-11-18T15:04:00.752Z,10.13
2022-11-18T15:06:28.478Z,13.40
2022-11-18T15:08:54.940Z,15.73
2022-11-18T15:11:21.458Z,13.93
2022-11-18T15:13:49.690Z,16.80
2022-11-18T15:16:22.173Z,11.97
2022-11-18T15:18:52.696Z,19.83
2022-11-18T15:21:19.828Z,17.63
2022-11-18T15:23:46.624Z,13.60
2022-11-18T15:26:23.013Z,13.10
2022-11-18T15:28:51.340Z,18.80
2022-11-18T15:31:18.778Z,14.70
2022-11-18T15:33:45.984Z,15.90
2022-11-18T15:36:14.557Z,15.17
2022-11-18T15:38:41.722Z,17.63
2022-11-18T15:41:25.261Z,17.30
2022-11-18T15:43:53.610Z,17.17
2022-11-18T15:46:21.921Z,18.60
2022-11-18T15:48:51.341Z,14.80
2022-11-18T15:51:18.072Z,14.20
2022-11-18T15:53:44.794Z,16.40
2022-11-18T15:56:20.445Z,16.13
2022-11-18T15:58:58.298Z,14.80
2022-11-18T16:01:26.791Z,14.87
2022-11-18T16:03:53.398Z,15.37
2022-11-18T16:06:19.944Z,10.63
2022-11-18T16:08:46.537Z,16.37
2022-11-18T16:11:33.740Z,19.03
2022-11-18T16:14:01.909Z,11.60
2022-11-18T16:16:30.121Z,24.67
2022-11-18T16:18:57.769Z,16.40
2022-11-18T16:21:24.904Z,23.77
2022-11-18T16:23:54.916Z,15.47
2022-11-18T16:26:21.478Z,18.97
2022-11-18T16:28:47.961Z,18.97
2022-11-18T16:31:43.894Z,15.17
2022-11-18T16:34:22.147Z,13.40
2022-11-18T16:36:54.213Z,17.57
2022-11-18T16:39:26.105Z,23.30
2022-11-18T16:41:54.464Z,19.17
2022-11-18T16:44:20.954Z,20.30
2022-11-18T16:46:52.298Z,23.83
2022-11-18T16:49:21.594Z,23.10
2022-11-18T16:51:50.485Z,22.80
2022-11-18T16:54:23.325Z,26.17
2022-11-18T16:56:51.270Z,18.10
2022-11-18T16:59:21.823Z,32.50
2022-11-18T17:01:52.556Z,25.20
2022-11-18T17:04:20.710Z,27.83
2022-11-18T17:06:47.272Z,24.77
2022-11-18T17:09:16.879Z,24.23
2022-11-18T17:11:43.705Z,18.27
2022-11-18T17:14:10.324Z,15.23
2022-11-18T17:16:37.283Z,15.07
2022-11-18T17:19:10.180Z,16.83
2022-11-18T17:21:38.364Z,15.87
2022-11-18T17:24:05.691Z,16.27
2022-11-18T17:26:32.395Z,18.40
2022-11-18T17:28:58.834Z,16.43
2022-11-18T17:31:25.953Z,17.13
2022-11-18T17:33:54.397Z,17.13
2022-11-18T17:36:23.440Z,28.80
2022-11-18T17:38:52.611Z,19.33
2022-11-18T17:41:41.200Z,17.80
2022-11-18T17:44:10.024Z,13.23
2022-11-18T17:46:38.554Z,12.83
2022-11-18T17:49:07.839Z,14.03
2022-11-18T17:51:34.362Z,18.60
2022-11-18T17:54:00.888Z,22.17
2022-11-18T17:56:27.388Z,30.87
2022-11-18T17:58:53.888Z,32.60
2022-11-18T18:01:21.593Z,33.53
2022-11-18T18:03:48.423Z,38.57
2022-11-18T18:06:15.397Z,17.17
2022-11-18T18:08:42.052Z,14.70
2022-11-18T18:11:14.752Z,15.77
2022-11-18T18:14:01.028Z,15.67
2022-11-18T18:16:29.612Z,15.27
2022-11-18T18:18:57.905Z,21.20
2022-11-18T18:21:24.581Z,17.83
2022-11-18T18:23:51.247Z,15.20
2022-11-18T18:26:17.672Z,16.10
2022-11-18T18:28:45.041Z,17.93
2022-11-18T18:31:14.097Z,18.20
2022-11-18T18:33:40.920Z,12.23
2022-11-18T18:36:10.831Z,14.40
2022-11-18T18:38:38.676Z,17.30
2022-11-18T18:41:07.849Z,18.87
2022-11-18T18:43:34.716Z,18.37
2022-11-18T18:46:30.357Z,19.37
2022-11-18T18:49:12.531Z,17.30
2022-11-18T18:51:48.812Z,21.97
2022-11-18T18:54:17.282Z,19.63
2022-11-18T18:56:44.198Z,15.90
2022-11-18T18:59:11.272Z,18.73
2022-11-18T19:01:38.575Z,18.13
2022-11-18T19:04:06.799Z,18.13
2022-11-18T19:09:25.709Z,24.10
2022-11-18T19:12:11.656Z,20.13
2022-11-18T19:14:38.200Z,22.57
2022-11-18T19:17:10.238Z,22.90
2022-11-18T19:19:57.108Z,19.67
2022-11-18T19:22:24.481Z,14.43
2022-11-18T19:24:51.325Z,17.63
2022-11-18T19:27:19.234Z,18.37
2022-11-18T19:29:45.759Z,20.57
2022-11-18T19:32:12.759Z,22.60
2022-11-18T19:34:39.305Z,21.43
2022-11-18T19:37:05.736Z,18.13
2022-11-18T19:39:32.365Z,15.60
2022-11-18T19:41:58.932Z,17.50
2022-11-18T19:44:25.487Z,16.17
2022-11-18T19:46:51.980Z,15.13
2022-11-18T19:49:18.899Z,19.93
2022-11-18T19:51:45.553Z,17.73
2022-11-18T19:54:11.933Z,15.93
2022-11-18T19:56:38.908Z,22.10
2022-11-18T19:59:05.507Z,15.73
2022-11-18T20:01:32.062Z,13.70
2022-11-18T20:04:05.523Z,16.50
2022-11-18T20:06:34.148Z,20.37
2022-11-18T20:09:00.569Z,16.93
2022-11-18T20:11:28.148Z,17.23
2022-11-18T20:13:54.690Z,18.77
2022-11-18T20:16:23.443Z,15.80
2022-11-18T20:18:59.537Z,17.40
2022-11-18T20:21:27.584Z,19.07
2022-11-18T20:23:59.783Z,16.47
2022-11-18T20:26:29.334Z,17.87
2022-11-18T20:28:57.629Z,18.83
2022-11-18T20:31:25.589Z,17.80
2022-11-18T20:33:55.033Z,23.07
2022-11-18T20:36:24.173Z,18.13
2022-11-18T20:38:53.341Z,16.33
2022-11-18T20:41:20.977Z,21.00
2022-11-18T20:43:48.125Z,19.20
2022-11-18T20:46:20.763Z,23.97
2022-11-18T20:48:49.144Z,25.60
2022-11-18T20:51:23.282Z,20.77
2022-11-18T20:53:51.101Z,27.97
2022-11-18T20:56:19.945Z,19.33
2022-11-18T20:58:46.509Z,20.20
2022-11-18T21:01:24.984Z,27.60
2022-11-18T21:03:54.444Z,26.53
2022-11-18T21:06:23.176Z,20.30
2022-11-18T21:08:55.139Z,18.47
2022-11-18T21:11:21.622Z,21.90
2022-11-18T21:14:06.749Z,22.77
2022-11-18T21:16:33.455Z,18.10
2022-11-18T21:18:59.933Z,17.57
2022-11-18T21:21:44.524Z,20.57
2022-11-18T21:24:23.079Z,17.87
2022-11-18T21:26:52.097Z,18.27
2022-11-18T21:29:20.252Z,17.30
2022-11-18T21:31:47.412Z,17.87
2022-11-18T21:34:15.554Z,18.93
2022-11-18T21:36:46.714Z,24.23
2022-11-18T21:39:15.979Z,22.80
2022-11-18T21:41:42.761Z,21.50
2022-11-18T21:44:11.393Z,21.50
2022-11-18T21:46:39.718Z,23.23
2022-11-18T21:49:06.749Z,26.27
2022-11-18T21:51:34.381Z,27.50
2022-11-18T21:54:01.559Z,24.97
2022-11-18T21:56:30.991Z,29.73
2022-11-18T21:59:00.152Z,26.27
2022-11-18T22:01:29.015Z,21.23
2022-11-18T22:03:57.659Z,21.60
2022-11-18T22:06:25.670Z,22.80
2022-11-18T22:08:52.589Z,27.50
2022-11-18T22:11:22.243Z,23.70
2022-11-18T22:13:50.873Z,27.70
2022-11-18T22:16:19.046Z,23.67
2022-11-18T22:18:50.320Z,36.03
2022-11-18T22:21:21.149Z,37.63
2022-11-18T22:23:48.279Z,30.83
2022-11-18T22:26:17.364Z,34.00
2022-11-18T22:28:44.329Z,35.17
2022-11-18T22:31:12.026Z,40.67
2022-11-18T22:33:38.806Z,33.80
2022-11-18T22:36:08.753Z,25.57
2022-11-18T22:38:35.470Z,22.90
2022-11-18T22:41:03.977Z,19.77
2022-11-18T22:43:32.377Z,20.10
2022-11-18T22:46:08.420Z,24.03
2022-11-18T22:48:35.472Z,26.37
2022-11-18T22:51:06.144Z,21.93
2022-11-18T22:53:33.629Z,22.60
2022-11-18T22:56:11.844Z,20.33
2022-11-18T22:58:38.790Z,18.27
2022-11-18T23:01:11.301Z,21.10
2022-11-18T23:03:37.763Z,19.30
2022-11-18T23:06:05.135Z,18.70
2022-11-18T23:08:34.219Z,18.97
2022-11-18T23:11:02.117Z,20.40
2022-11-18T23:13:47.152Z,21.90
2022-11-18T23:16:13.593Z,15.07
2022-11-18T23:18:40.145Z,19.70
2022-11-18T23:21:06.760Z,16.70
2022-11-18T23:23:33.202Z,16.67
2022-11-18T23:26:08.413Z,49.23
2022-11-18T23:28:36.045Z,29.30
2022-11-18T23:31:11.411Z,23.57
2022-11-18T23:33:38.899Z,17.63
2022-11-18T23:36:07.366Z,18.07
2022-11-18T23:38:34.617Z,20.37
2022-11-18T23:41:03.779Z,17.27
2022-11-18T23:43:31.389Z,19.00
2022-11-18T23:45:58.706Z,17.20
2022-11-18T23:48:26.874Z,17.70
2022-11-18T23:50:57.592Z,19.50
2022-11-18T23:53:25.081Z,19.60
2022-11-18T23:55:51.586Z,17.40
2022-11-18T23:58:18.495Z,18.90
